Time;durP1;ratioP1;P1;durP2;ratioP2;P2;SDS_P1;SDS_P2;PMS_P1;PMS_P2;Temp;Humidity;BMP_temperature;BMP_pressure;BME280_temperature;BME280_humidity;BME280_pressure;Samples;Min_cycle;Max_cycle;Signal;HPM_P1;HPM_P2
2022/04/05 00:01:11;;;;;;;17.80;9.60;;;6.90;99.90;;;;;;5054489;28;20653;-80
2022/04/05 00:03:36;;;;;;;19.53;10.60;;;6.90;99.90;;;;;;5055032;28;20250;-80
2022/04/05 00:06:02;;;;;;;17.73;9.40;;;6.90;99.90;;;;;;5054780;28;20655;-80
2022/04/05 00:08:28;;;;;;;17.57;9.70;;;6.90;99.90;;;;;;5054616;28;20676;-79
2022/04/05 00:10:53;;;;;;;16.33;9.30;;;6.90;99.90;;;;;;5053817;28;20175;-80
2022/04/05 00:13:19;;;;;;;16.20;8.67;;;6.90;99.90;;;;;;5053972;28;20595;-79
2022/04/05 00:15:44;;;;;;;18.93;9.07;;;6.90;99.90;;;;;;5054572;28;20200;-80
2022/04/05 00:18:10;;;;;;;17.17;8.97;;;6.90;99.90;;;;;;5052618;28;20178;-80
2022/04/05 00:20:35;;;;;;;19.33;9.57;;;6.90;99.90;;;;;;5034155;28;20174;-79
2022/04/05 00:23:01;;;;;;;17.93;9.57;;;6.90;99.90;;;;;;5054081;28;20174;-80
2022/04/05 00:25:27;;;;;;;22.97;9.60;;;6.90;99.90;;;;;;5054321;28;20169;-80
2022/04/05 00:27:53;;;;;;;17.80;9.17;;;6.90;99.90;;;;;;5054397;28;20282;-79
2022/04/05 00:30:18;;;;;;;17.73;9.60;;;6.90;99.90;;;;;;5054126;28;20215;-79
2022/04/05 00:32:44;;;;;;;18.37;9.47;;;6.90;99.90;;;;;;5053797;28;20178;-79
2022/04/05 00:35:11;;;;;;;20.47;8.87;;;6.90;99.90;;;;;;5054112;28;20188;-79
2022/04/05 00:37:37;;;;;;;17.47;8.70;;;6.90;99.90;;;;;;5035955;28;20180;-77
2022/04/05 00:40:05;;;;;;;18.23;9.03;;;6.90;99.90;;;;;;5053449;28;20223;-77
2022/04/05 00:42:32;;;;;;;16.00;8.30;;;6.90;99.90;;;;;;5053153;28;20192;-79
2022/04/05 00:44:58;;;;;;;16.80;8.23;;;6.90;99.90;;;;;;5053491;28;20196;-77
2022/04/05 00:47:24;;;;;;;14.00;7.67;;;7.00;99.90;;;;;;5053556;28;20199;-77
2022/04/05 00:49:52;;;;;;;16.03;8.17;;;6.90;99.90;;;;;;5035738;28;20223;-77
2022/04/05 00:52:20;;;;;;;17.17;8.03;;;7.00;99.90;;;;;;5052927;28;20164;-78
2022/04/05 00:54:50;;;;;;;14.73;7.40;;;7.00;99.90;;;;;;5053270;28;20172;-77
2022/04/05 00:57:18;;;;;;;14.63;6.80;;;6.90;99.90;;;;;;5051699;28;20184;-77
2022/04/05 00:59:46;;;;;;;13.00;6.50;;;7.00;99.90;;;;;;5053410;28;20193;-77
2022/04/05 01:02:16;;;;;;;13.10;6.87;;;7.00;99.90;;;;;;5052678;28;20170;-79
2022/04/05 01:04:42;;;;;;;14.10;5.93;;;7.00;99.90;;;;;;5053956;28;20190;-79
2022/04/05 01:07:11;;;;;;;9.63;5.33;;;7.00;99.90;;;;;;5053876;28;20258;-79
2022/04/05 01:09:39;;;;;;;7.37;4.10;;;7.00;99.90;;;;;;5053736;28;20190;-80
2022/04/05 01:12:07;;;;;;;6.60;4.00;;;7.00;99.90;;;;;;5053202;28;20612;-80
2022/04/05 01:14:32;;;;;;;9.57;4.10;;;7.00;99.90;;;;;;5053689;28;20643;-80
2022/04/05 01:16:58;;;;;;;8.07;4.43;;;7.00;99.90;;;;;;5051983;28;20180;-80
2022/04/05 01:19:24;;;;;;;7.90;4.17;;;7.00;99.90;;;;;;5053646;28;20337;-80
2022/04/05 01:21:50;;;;;;;6.83;3.90;;;6.90;99.90;;;;;;5049859;28;20526;-80
2022/04/05 01:24:16;;;;;;;6.23;4.13;;;6.90;99.90;;;;;;5052966;28;20180;-80
2022/04/05 01:26:50;;;;;;;4.90;3.33;;;6.90;99.90;;;;;;5053938;28;20241;-80
2022/04/05 01:29:18;;;;;;;5.97;3.63;;;6.90;99.90;;;;;;5035669;28;20297;-79
2022/04/05 01:31:52;;;;;;;6.90;3.70;;;6.90;99.90;;;;;;5034940;28;20222;-80
2022/04/05 01:34:20;;;;;;;7.47;3.50;;;6.90;99.90;;;;;;5035295;28;20174;-80
2022/04/05 01:36:52;;;;;;;6.57;3.80;;;6.80;99.90;;;;;;5035658;28;20219;-79
2022/04/05 01:39:19;;;;;;;6.20;3.80;;;6.90;99.90;;;;;;5035396;28;20207;-79
2022/04/05 01:41:45;;;;;;;7.70;4.00;;;6.90;99.90;;;;;;5053046;28;20184;-79
2022/04/05 01:44:18;;;;;;;7.10;3.70;;;6.80;99.90;;;;;;5068982;28;20543;-79
2022/04/05 01:46:43;;;;;;;5.77;3.60;;;6.90;99.90;;;;;;5069081;28;20178;-79
2022/04/05 01:49:10;;;;;;;6.37;4.00;;;6.80;99.90;;;;;;5069003;28;20199;-79
2022/04/05 01:51:37;;;;;;;6.03;3.77;;;6.90;99.90;;;;;;5068512;28;20260;-78
2022/04/05 01:54:08;;;;;;;5.53;3.70;;;6.80;99.90;;;;;;5069177;28;20215;-79
2022/04/05 01:56:55;;;;;;;6.77;3.13;;;6.80;99.90;;;;;;5070070;22;20217;-81
2022/04/05 01:59:25;;;;;;;5.80;3.60;;;6.80;99.90;;;;;;5048648;28;20636;-81
2022/04/05 02:01:51;;;;;;;5.30;2.97;;;6.80;99.90;;;;;;5049094;28;20171;-81
2022/04/05 02:04:17;;;;;;;4.77;3.10;;;6.80;99.90;;;;;;5049211;28;20195;-81
2022/04/05 02:06:43;;;;;;;11.03;3.60;;;6.80;99.90;;;;;;5049105;28;20169;-81
2022/04/05 02:09:13;;;;;;;10.00;3.50;;;6.80;99.90;;;;;;5051258;28;20294;-80
2022/04/05 02:11:39;;;;;;;5.23;3.30;;;6.80;99.90;;;;;;5051362;28;20172;-80
2022/04/05 02:14:05;;;;;;;4.27;3.37;;;6.80;99.90;;;;;;5051114;28;20177;-80
2022/04/05 02:16:32;;;;;;;4.17;3.00;;;6.80;99.90;;;;;;5050512;28;20178;-80
2022/04/05 02:18:58;;;;;;;3.53;2.63;;;6.80;99.90;;;;;;5051244;28;20244;-80
2022/04/05 02:21:24;;;;;;;4.73;3.13;;;6.80;99.90;;;;;;5050418;28;20189;-80
2022/04/05 02:23:49;;;;;;;5.50;3.03;;;6.80;99.90;;;;;;5051746;28;20213;-80
2022/04/05 02:26:15;;;;;;;4.23;2.80;;;6.70;99.90;;;;;;5052724;28;20169;-79
2022/04/05 02:28:41;;;;;;;4.57;2.97;;;6.80;99.90;;;;;;5052590;28;20643;-80
2022/04/05 02:31:07;;;;;;;4.80;2.60;;;6.70;99.90;;;;;;5049489;28;20208;-80
2022/04/05 02:33:33;;;;;;;6.23;3.10;;;6.70;99.90;;;;;;5049731;28;20176;-81
2022/04/05 02:35:58;;;;;;;6.13;2.80;;;6.70;99.90;;;;;;5049375;28;20549;-81
2022/04/05 02:38:24;;;;;;;6.87;3.20;;;6.70;99.90;;;;;;5049678;28;20243;-80
2022/04/05 02:40:50;;;;;;;3.97;3.00;;;6.70;99.90;;;;;;5050866;28;20282;-81
2022/04/05 02:43:16;;;;;;;3.00;2.30;;;6.70;99.90;;;;;;5049078;28;20204;-80
2022/04/05 02:45:41;;;;;;;6.73;2.83;;;6.70;99.90;;;;;;5051144;28;20171;-79
2022/04/05 02:48:07;;;;;;;4.80;3.00;;;6.70;99.90;;;;;;5051862;28;20179;-79
2022/04/05 02:50:33;;;;;;;4.43;2.70;;;6.70;99.90;;;;;;5052299;28;20202;-79
2022/04/05 02:52:58;;;;;;;5.30;2.77;;;6.70;99.90;;;;;;5051516;28;20182;-79
2022/04/05 02:55:24;;;;;;;3.80;2.73;;;6.70;99.90;;;;;;5040915;28;20182;-79
2022/04/05 02:57:50;;;;;;;4.03;2.93;;;6.70;99.90;;;;;;5043334;28;20333;-79
2022/04/05 03:00:17;;;;;;;4.10;2.90;;;6.70;99.90;;;;;;5037672;28;20565;-79
2022/04/05 03:02:43;;;;;;;5.20;2.93;;;6.60;99.90;;;;;;5037742;28;20213;-79
2022/04/05 03:05:10;;;;;;;7.73;3.30;;;6.60;99.90;;;;;;5037041;28;20264;-78
2022/04/05 03:07:40;;;;;;;5.77;3.47;;;6.60;99.90;;;;;;5035804;28;20174;-79
2022/04/05 03:10:10;;;;;;;3.43;2.73;;;6.60;99.90;;;;;;5034977;28;20670;-79
2022/04/05 03:12:36;;;;;;;3.77;2.80;;;6.60;99.90;;;;;;5034894;28;20605;-78
2022/04/05 03:15:04;;;;;;;3.70;2.77;;;6.60;99.90;;;;;;5035179;28;20267;-79
2022/04/05 03:17:29;;;;;;;3.50;2.83;;;6.60;99.90;;;;;;5034700;28;20220;-79
2022/04/05 03:19:55;;;;;;;3.93;2.93;;;6.60;99.90;;;;;;5034674;28;20201;-78
2022/04/05 03:22:20;;;;;;;3.97;3.10;;;6.60;99.90;;;;;;5034612;28;20261;-79
2022/04/05 03:24:46;;;;;;;6.30;2.90;;;6.60;99.90;;;;;;5034709;28;20230;-79
2022/04/05 03:27:12;;;;;;;13.27;3.13;;;6.60;99.90;;;;;;5035091;28;20181;-79
2022/04/05 03:29:38;;;;;;;8.87;2.70;;;6.60;99.90;;;;;;5034887;28;20326;-79
2022/04/05 03:32:05;;;;;;;5.37;2.90;;;6.70;99.90;;;;;;5034953;28;20185;-79
2022/04/05 03:34:30;;;;;;;3.30;2.90;;;6.60;99.90;;;;;;5034863;28;20174;-78
2022/04/05 03:36:56;;;;;;;2.93;2.63;;;6.60;99.90;;;;;;5037178;28;20202;-78
2022/04/05 03:39:22;;;;;;;8.80;3.60;;;6.60;99.90;;;;;;5034257;28;20285;-79
2022/04/05 03:41:49;;;;;;;5.30;3.23;;;6.70;99.90;;;;;;5034108;28;20223;-79
2022/04/05 03:44:16;;;;;;;8.77;3.40;;;6.60;99.90;;;;;;5034068;28;20259;-78
2022/04/05 03:46:42;;;;;;;6.00;3.10;;;6.60;99.90;;;;;;5034572;28;20171;-79
2022/04/05 03:49:07;;;;;;;3.97;3.23;;;6.70;99.90;;;;;;5033510;28;20194;-80
2022/04/05 03:51:33;;;;;;;3.87;2.83;;;6.70;99.90;;;;;;5034004;28;20177;-80
2022/04/05 03:53:59;;;;;;;5.20;3.13;;;6.70;99.90;;;;;;5033298;28;20512;-80
2022/04/05 03:56:24;;;;;;;3.87;2.80;;;6.70;99.90;;;;;;5033289;28;20580;-80
2022/04/05 03:58:50;;;;;;;5.00;3.23;;;6.70;99.90;;;;;;5033153;28;20229;-80
2022/04/05 04:01:17;;;;;;;4.13;3.20;;;6.70;99.90;;;;;;5033180;28;20654;-80
2022/04/05 04:03:42;;;;;;;7.33;3.30;;;6.70;99.90;;;;;;5034853;28;20236;-80
2022/04/05 04:06:08;;;;;;;3.20;2.90;;;6.70;99.90;;;;;;5031851;28;20651;-80
2022/04/05 04:08:33;;;;;;;3.60;3.23;;;6.70;99.90;;;;;;5032610;28;20174;-80
2022/04/05 04:10:59;;;;;;;7.93;2.90;;;6.70;99.90;;;;;;5032686;28;20285;-80
2022/04/05 04:13:25;;;;;;;4.10;3.10;;;6.70;99.90;;;;;;5032374;28;20188;-80
2022/04/05 04:15:51;;;;;;;5.30;2.87;;;6.70;99.90;;;;;;5033474;28;20220;-81
2022/04/05 04:18:17;;;;;;;6.77;3.00;;;6.70;99.90;;;;;;5034357;28;20226;-80
2022/04/05 04:20:42;;;;;;;4.50;3.23;;;6.70;99.90;;;;;;5034456;28;20194;-80
2022/04/05 04:23:09;;;;;;;3.87;3.03;;;6.70;99.90;;;;;;5035588;28;20617;-80
2022/04/05 04:25:37;;;;;;;5.53;3.20;;;6.70;99.90;;;;;;5035662;28;20665;-80
2022/04/05 04:28:07;;;;;;;3.63;3.00;;;6.70;99.90;;;;;;5034990;28;20182;-80
2022/04/05 04:30:33;;;;;;;6.13;3.10;;;6.70;99.90;;;;;;5034931;28;20225;-80
2022/04/05 04:32:59;;;;;;;8.23;3.20;;;6.70;99.90;;;;;;5035188;28;20213;-80
2022/04/05 04:35:25;;;;;;;7.90;3.40;;;6.80;99.90;;;;;;5035228;28;20177;-80
2022/04/05 04:37:51;;;;;;;5.53;3.17;;;6.70;99.90;;;;;;5035226;28;20189;-80
2022/04/05 04:40:17;;;;;;;5.87;3.07;;;6.70;99.90;;;;;;5034423;28;20637;-80
2022/04/05 04:42:42;;;;;;;6.60;3.27;;;6.70;99.90;;;;;;5034551;28;20196;-80
2022/04/05 04:45:09;;;;;;;4.43;3.43;;;6.70;99.90;;;;;;5034741;28;20205;-80
2022/04/05 04:47:34;;;;;;;5.20;3.37;;;6.70;99.90;;;;;;5034846;28;20216;-80
2022/04/05 04:50:00;;;;;;;6.83;3.23;;;6.70;99.90;;;;;;5034518;28;20254;-80
2022/04/05 04:52:26;;;;;;;4.27;3.07;;;6.70;99.90;;;;;;5034200;28;20172;-80
2022/04/05 04:54:52;;;;;;;5.90;3.33;;;6.70;99.90;;;;;;5034927;28;20178;-80
2022/04/05 04:57:19;;;;;;;6.77;3.70;;;6.70;99.90;;;;;;5034631;28;20684;-80
2022/04/05 04:59:48;;;;;;;4.83;2.97;;;6.70;99.90;;;;;;5034835;28;20203;-80
2022/04/05 05:02:13;;;;;;;5.53;3.07;;;6.70;99.90;;;;;;5033724;28;20542;-80
2022/04/05 05:04:39;;;;;;;10.60;3.50;;;6.70;99.90;;;;;;5034394;28;20177;-80
2022/04/05 05:07:05;;;;;;;3.80;2.93;;;6.70;99.90;;;;;;5034571;28;20176;-80
2022/04/05 05:09:31;;;;;;;4.90;3.43;;;6.70;99.90;;;;;;5035267;28;20187;-80
2022/04/05 05:12:00;;;;;;;6.07;3.10;;;6.70;99.90;;;;;;5034302;28;20253;-80
2022/04/05 05:14:27;;;;;;;7.47;3.67;;;6.70;99.90;;;;;;5034025;28;20177;-80
2022/04/05 05:16:53;;;;;;;6.13;3.40;;;6.70;99.90;;;;;;5030820;28;20173;-80
2022/04/05 05:19:20;;;;;;;3.80;3.40;;;6.70;99.90;;;;;;5031384;28;20195;-79
2022/04/05 05:21:46;;;;;;;7.03;3.70;;;6.70;99.90;;;;;;5031421;28;20216;-80
2022/04/05 05:24:11;;;;;;;7.93;3.83;;;6.80;99.90;;;;;;5031737;28;20290;-80
2022/04/05 05:26:37;;;;;;;4.00;3.57;;;6.80;99.90;;;;;;5031476;28;20256;-80
2022/04/05 05:29:03;;;;;;;7.13;4.07;;;6.80;99.90;;;;;;5031293;28;20781;-80
2022/04/05 05:31:28;;;;;;;4.17;3.63;;;6.80;99.90;;;;;;5031792;28;20174;-80
2022/04/05 05:33:54;;;;;;;5.93;4.20;;;6.80;99.90;;;;;;5031385;28;20174;-80
2022/04/05 05:36:20;;;;;;;7.43;4.00;;;6.80;99.90;;;;;;5032473;28;20550;-78
2022/04/05 05:38:45;;;;;;;5.67;4.00;;;6.80;99.90;;;;;;5032176;28;20225;-79
2022/04/05 05:41:11;;;;;;;6.83;3.47;;;6.90;99.90;;;;;;5031900;28;20537;-78
2022/04/05 05:43:38;;;;;;;5.47;4.17;;;6.90;99.90;;;;;;5031502;28;20288;-78
2022/04/05 05:46:06;;;;;;;9.97;4.40;;;6.90;99.90;;;;;;5031323;28;20217;-78
2022/04/05 05:48:33;;;;;;;6.93;4.80;;;6.90;99.90;;;;;;5031182;28;20277;-78
2022/04/05 05:50:59;;;;;;;7.43;4.67;;;6.90;99.90;;;;;;5031067;28;20224;-78
2022/04/05 05:53:24;;;;;;;10.93;4.47;;;6.90;99.90;;;;;;5030032;28;20223;-78
2022/04/05 05:55:50;;;;;;;7.37;4.53;;;6.90;99.90;;;;;;5030654;28;20180;-78
2022/04/05 05:58:16;;;;;;;8.87;4.50;;;7.00;99.90;;;;;;5030345;28;20181;-77
2022/04/05 06:00:41;;;;;;;7.20;3.97;;;6.90;99.90;;;;;;5030474;28;20190;-78
2022/04/05 06:03:10;;;;;;;7.90;4.70;;;6.90;99.90;;;;;;5029682;28;20263;-77
2022/04/05 06:05:36;;;;;;;11.37;4.53;;;7.00;99.90;;;;;;5030429;28;20172;-78
2022/04/05 06:08:03;;;;;;;6.87;4.50;;;7.00;99.90;;;;;;5030704;28;20212;-78
2022/04/05 06:10:29;;;;;;;10.40;4.40;;;7.00;99.90;;;;;;5031815;28;20698;-78
2022/04/05 06:12:56;;;;;;;8.37;3.90;;;7.00;99.90;;;;;;5030978;28;20264;-77
2022/04/05 06:15:23;;;;;;;6.37;4.07;;;7.00;99.90;;;;;;5027910;23;20237;-76
2022/04/05 06:17:49;;;;;;;8.87;4.17;;;7.00;99.90;;;;;;5012640;28;20245;-76
2022/04/05 06:20:16;;;;;;;10.13;4.40;;;7.00;99.90;;;;;;5014047;28;20171;-77
2022/04/05 06:22:47;;;;;;;5.13;4.13;;;7.00;99.90;;;;;;5012349;28;20277;-77
2022/04/05 06:25:15;;;;;;;9.77;4.70;;;7.00;99.90;;;;;;5013990;28;20171;-77
2022/04/05 06:27:41;;;;;;;7.40;4.00;;;7.00;99.90;;;;;;5037140;22;20173;-82
2022/04/05 06:30:08;;;;;;;5.70;4.30;;;7.00;99.90;;;;;;5033188;28;20318;-80
2022/04/05 06:32:34;;;;;;;6.37;4.30;;;7.00;99.90;;;;;;5036834;28;20175;-80
2022/04/05 06:35:01;;;;;;;8.53;4.33;;;7.10;99.90;;;;;;5036806;28;20181;-80
2022/04/05 06:37:26;;;;;;;6.47;4.67;;;7.10;99.90;;;;;;5036303;28;20173;-81
2022/04/05 06:39:52;;;;;;;5.53;3.87;;;7.10;99.90;;;;;;5036855;28;20284;-80
2022/04/05 06:42:18;;;;;;;8.10;4.30;;;7.10;99.90;;;;;;5038159;28;20326;-81
2022/04/05 06:44:44;;;;;;;4.73;4.03;;;7.10;99.90;;;;;;5038110;28;20171;-80
2022/04/05 06:47:12;;;;;;;7.70;3.90;;;7.10;99.90;;;;;;5039834;28;20227;-81
2022/04/05 06:49:38;;;;;;;7.90;4.20;;;7.20;99.90;;;;;;5036142;28;20638;-81
2022/04/05 06:52:04;;;;;;;5.50;4.83;;;7.20;99.90;;;;;;5036561;28;20177;-80
2022/04/05 06:54:30;;;;;;;6.47;4.40;;;7.30;99.90;;;;;;5035930;28;20195;-80
2022/04/05 06:56:56;;;;;;;6.90;4.33;;;7.30;99.90;;;;;;5035421;28;20641;-80
2022/04/05 06:59:21;;;;;;;7.37;4.27;;;7.30;99.90;;;;;;5035867;28;20189;-81
2022/04/05 07:01:47;;;;;;;6.33;4.37;;;7.40;99.90;;;;;;5034545;28;20234;-81
2022/04/05 07:04:12;;;;;;;6.33;4.10;;;7.40;99.90;;;;;;5033673;28;20218;-80
2022/04/05 07:06:38;;;;;;;5.73;4.00;;;7.50;99.90;;;;;;5034975;28;20174;-79
2022/04/05 07:09:07;;;;;;;6.97;4.30;;;7.50;99.90;;;;;;5035105;28;20186;-81
2022/04/05 07:11:33;;;;;;;7.47;4.00;;;7.60;99.90;;;;;;5035853;28;20176;-80
2022/04/05 07:13:59;;;;;;;5.30;3.70;;;7.60;99.90;;;;;;5024696;28;20178;-81
2022/04/05 07:16:25;;;;;;;6.33;3.87;;;7.70;99.90;;;;;;5027655;28;20178;-80
2022/04/05 07:18:50;;;;;;;5.97;3.73;;;7.70;99.90;;;;;;5026437;28;20174;-80
2022/04/05 07:21:18;;;;;;;5.03;3.50;;;7.60;99.90;;;;;;5022762;28;20253;-80
2022/04/05 07:23:44;;;;;;;5.50;2.90;;;7.60;99.90;;;;;;5024923;28;20217;-80
2022/04/05 07:26:10;;;;;;;4.67;3.57;;;7.70;99.90;;;;;;5023918;28;20248;-80
2022/04/05 07:28:36;;;;;;;5.73;3.10;;;7.60;99.90;;;;;;5023031;28;20665;-81
2022/04/05 07:31:03;;;;;;;4.83;3.23;;;7.60;99.90;;;;;;5025384;28;20170;-81
2022/04/05 07:33:29;;;;;;;6.03;3.40;;;7.70;99.90;;;;;;5025935;28;20178;-81
2022/04/05 07:35:54;;;;;;;10.87;3.30;;;7.60;99.90;;;;;;5026914;28;20209;-81
2022/04/05 07:38:20;;;;;;;3.93;3.23;;;7.70;99.90;;;;;;5023211;28;20317;-80
2022/04/05 07:40:49;;;;;;;5.90;3.43;;;7.70;99.90;;;;;;5019009;28;20202;-80
2022/04/05 07:43:16;;;;;;;3.87;3.23;;;7.70;99.90;;;;;;5014225;28;20207;-80
2022/04/05 07:45:42;;;;;;;3.57;3.20;;;7.70;99.90;;;;;;5024540;28;20661;-82
2022/04/05 07:48:08;;;;;;;3.87;3.37;;;7.70;99.90;;;;;;5022609;28;20173;-81
2022/04/05 07:50:34;;;;;;;4.40;3.23;;;7.70;99.90;;;;;;5022507;28;20556;-80
2022/04/05 07:52:59;;;;;;;6.77;3.40;;;7.70;99.90;;;;;;5024020;28;20170;-79
2022/04/05 07:55:25;;;;;;;6.20;3.43;;;7.70;99.90;;;;;;5017241;28;20189;-82
2022/04/05 07:57:50;;;;;;;6.13;3.10;;;7.70;99.90;;;;;;5014348;28;20185;-81
2022/04/05 08:00:16;;;;;;;4.57;3.27;;;7.80;99.90;;;;;;5019725;28;20685;-81
2022/04/05 08:02:42;;;;;;;3.67;3.30;;;7.80;99.90;;;;;;5025230;28;20201;-80
2022/04/05 08:05:08;;;;;;;3.93;3.20;;;7.80;99.90;;;;;;5023217;28;20173;-79
2022/04/05 08:07:34;;;;;;;6.17;3.60;;;7.80;99.90;;;;;;5024821;28;20166;-80
2022/04/05 08:10:00;;;;;;;3.77;2.80;;;7.90;99.90;;;;;;5021908;28;20189;-80
2022/04/05 08:12:26;;;;;;;4.50;3.27;;;7.80;99.90;;;;;;5025434;28;20173;-79
2022/04/05 08:14:51;;;;;;;4.07;3.17;;;7.90;99.90;;;;;;5031842;28;20177;-81
2022/04/05 08:17:17;;;;;;;3.37;2.83;;;7.80;99.90;;;;;;5028941;28;20192;-81
2022/04/05 08:19:42;;;;;;;6.37;3.47;;;7.80;99.90;;;;;;5026484;28;20565;-80
2022/04/05 08:22:08;;;;;;;3.33;3.03;;;7.90;99.90;;;;;;5030187;28;20185;-79
2022/04/05 08:24:35;;;;;;;3.47;3.10;;;8.00;99.90;;;;;;5032746;28;20176;-78
2022/04/05 08:27:00;;;;;;;7.53;3.47;;;8.00;99.90;;;;;;5033361;28;20169;-80
2022/04/05 08:29:26;;;;;;;3.53;3.20;;;8.00;99.90;;;;;;5033071;28;20289;-80
2022/04/05 08:31:52;;;;;;;5.43;3.50;;;8.00;99.90;;;;;;5032417;28;20650;-80
2022/04/05 08:34:21;;;;;;;3.50;3.10;;;8.10;99.90;;;;;;5033205;28;20184;-80
2022/04/05 08:36:47;;;;;;;3.40;3.10;;;8.10;99.90;;;;;;5032949;28;20177;-80
2022/04/05 08:39:13;;;;;;;3.27;2.97;;;8.20;99.90;;;;;;5032950;28;20213;-83
2022/04/05 08:41:41;;;;;;;3.03;2.53;;;8.20;99.90;;;;;;5033079;28;20795;-80
2022/04/05 08:44:08;;;;;;;3.57;3.00;;;8.30;99.90;;;;;;5032796;28;20252;-81
2022/04/05 08:46:34;;;;;;;7.60;2.67;;;8.30;99.90;;;;;;5032921;28;20180;-80
2022/04/05 08:49:02;;;;;;;3.07;2.77;;;8.40;99.90;;;;;;5032777;28;20316;-81
2022/04/05 08:51:30;;;;;;;1.97;1.80;;;8.40;99.90;;;;;;5032514;28;20181;-80
2022/04/05 08:53:57;;;;;;;2.63;1.83;;;8.30;99.90;;;;;;5032638;28;20174;-80
2022/04/05 08:56:26;;;;;;;3.00;2.30;;;8.40;99.90;;;;;;5032607;28;20193;-80
2022/04/05 08:58:52;;;;;;;4.10;2.30;;;8.50;99.90;;;;;;5032341;28;20675;-80
2022/04/05 09:01:18;;;;;;;2.23;2.03;;;8.50;99.90;;;;;;5030120;28;20212;-80
2022/04/05 09:03:44;;;;;;;2.50;2.30;;;8.50;99.90;;;;;;5030933;28;20527;-80
2022/04/05 09:06:30;;;;;;;2.70;2.27;;;8.60;99.90;;;;;;5031503;28;20170;-79
2022/04/05 09:09:19;;;;;;;2.97;2.63;;;8.50;99.90;;;;;;5031445;28;20202;-78
2022/04/05 09:11:50;;;;;;;3.23;2.50;;;8.50;99.90;;;;;;5030960;28;20166;-79
2022/04/05 09:14:27;;;;;;;2.93;2.50;;;8.40;99.90;;;;;;5030877;28;20256;-78
2022/04/05 09:17:13;;;;;;;2.63;2.43;;;8.50;99.90;;;;;;5031147;28;20170;-81
2022/04/05 09:19:45;;;;;;;2.40;2.20;;;8.60;99.90;;;;;;5030545;28;20269;-80
2022/04/05 09:22:13;;;;;;;3.27;2.30;;;8.50;99.90;;;;;;5031094;28;20170;-80
2022/04/05 09:24:43;;;;;;;2.73;2.53;;;8.50;99.90;;;;;;5031211;28;20173;-78
2022/04/05 09:27:09;;;;;;;3.40;2.67;;;8.60;99.90;;;;;;5031242;28;20178;-80
2022/04/05 09:29:42;;;;;;;3.90;3.03;;;8.60;99.90;;;;;;5031269;28;20212;-80
2022/04/05 09:32:08;;;;;;;4.27;3.03;;;8.50;99.90;;;;;;5031760;28;20181;-81
2022/04/05 09:34:49;;;;;;;4.33;3.50;;;8.60;99.90;;;;;;5032034;28;20178;-81
2022/04/05 09:37:14;;;;;;;3.67;3.37;;;8.60;99.90;;;;;;5024589;28;20216;-79
2022/04/05 09:39:41;;;;;;;4.37;3.53;;;8.60;99.90;;;;;;5031199;28;20202;-79
2022/04/05 09:42:09;;;;;;;5.80;4.17;;;8.60;99.90;;;;;;5031430;28;20201;-77
2022/04/05 09:44:40;;;;;;;3.87;3.40;;;8.80;99.90;;;;;;5030890;28;20214;-79
2022/04/05 09:47:17;;;;;;;4.30;3.50;;;8.80;99.90;;;;;;5030651;28;20154;-79
2022/04/05 09:49:48;;;;;;;4.83;3.67;;;8.90;99.90;;;;;;5030758;28;20191;-79
2022/04/05 09:52:22;;;;;;;4.10;3.40;;;8.80;99.90;;;;;;5031103;28;20173;-79
2022/04/05 09:54:48;;;;;;;4.83;3.90;;;8.80;99.90;;;;;;5030882;28;20173;-80
2022/04/05 09:57:14;;;;;;;4.17;3.20;;;8.80;99.90;;;;;;5030719;28;20194;-81
2022/04/05 09:59:45;;;;;;;3.83;3.20;;;8.80;99.90;;;;;;5031141;28;20218;-79
2022/04/05 10:02:17;;;;;;;6.57;4.10;;;8.80;99.90;;;;;;5031788;28;20189;-80
2022/04/05 10:05:06;;;;;;;3.80;3.40;;;8.80;99.90;;;;;;5034552;28;20171;-78
2022/04/05 10:07:32;;;;;;;4.37;3.30;;;8.90;99.90;;;;;;5035766;28;20207;-80
2022/04/05 10:09:59;;;;;;;3.97;3.30;;;9.10;99.90;;;;;;5036461;28;20849;-80
2022/04/05 10:12:26;;;;;;;6.30;3.93;;;9.10;99.90;;;;;;5036670;28;20169;-81
2022/04/05 10:14:52;;;;;;;3.93;3.40;;;9.10;99.90;;;;;;5035830;28;20196;-80
2022/04/05 10:17:19;;;;;;;6.63;3.77;;;9.20;99.90;;;;;;5033492;28;20564;-78
2022/04/05 10:19:50;;;;;;;4.93;3.83;;;9.30;99.90;;;;;;5025309;28;20702;-80
2022/04/05 10:22:18;;;;;;;5.67;4.23;;;9.60;99.90;;;;;;5026729;28;20173;-79
2022/04/05 10:24:45;;;;;;;5.90;3.73;;;9.70;99.90;;;;;;5026120;28;20175;-80
2022/04/05 10:27:11;;;;;;;5.20;3.93;;;10.00;99.90;;;;;;5025294;28;20302;-79
2022/04/05 10:29:38;;;;;;;3.90;3.50;;;10.20;99.90;;;;;;5024469;28;20210;-78
2022/04/05 10:32:27;;;;;;;5.00;3.90;;;10.20;99.90;;;;;;5026073;28;20167;-79
2022/04/05 10:35:04;;;;;;;5.30;4.20;;;10.10;99.90;;;;;;5025606;28;20160;-79
2022/04/05 10:37:34;;;;;;;5.77;4.63;;;10.20;99.90;;;;;;5024185;28;20180;-77
2022/04/05 10:40:00;;;;;;;8.53;5.00;;;10.40;99.90;;;;;;5024082;28;20199;-79
2022/04/05 10:42:34;;;;;;;9.37;5.23;;;10.40;99.90;;;;;;5025591;28;20296;-77
2022/04/05 10:45:41;;;;;;;11.50;5.83;;;10.50;99.90;;;;;;5026474;28;20639;-78
2022/04/05 10:48:14;;;;;;;10.07;6.20;;;10.50;99.90;;;;;;4996870;28;20225;-80
2022/04/05 10:50:42;;;;;;;11.07;6.60;;;10.40;99.90;;;;;;5026512;28;20218;-78
2022/04/05 10:53:18;;;;;;;7.77;5.77;;;10.60;99.90;;;;;;5026714;28;20177;-79
2022/04/05 10:56:10;;;;;;;12.33;7.20;;;10.70;99.90;;;;;;5041761;28;20554;-78
2022/04/05 10:58:38;;;;;;;10.80;6.73;;;10.80;99.90;;;;;;5027339;28;20180;-78
2022/04/05 11:01:19;;;;;;;19.73;10.37;;;10.90;99.90;;;;;;5036142;28;20177;-79
2022/04/05 11:04:17;;;;;;;12.00;7.30;;;11.20;99.90;;;;;;5035459;28;20207;-78
2022/04/05 11:07:01;;;;;;;14.47;7.10;;;11.30;99.90;;;;;;5027635;28;20170;-78
2022/04/05 11:09:49;;;;;;;10.13;7.30;;;11.40;99.90;;;;;;5040898;28;20192;-79
2022/04/05 11:12:30;;;;;;;11.47;6.83;;;11.50;99.90;;;;;;5026462;28;20169;-79
2022/04/05 11:15:03;;;;;;;10.07;6.77;;;11.50;99.90;;;;;;5024740;28;20169;-77
2022/04/05 11:17:30;;;;;;;10.80;6.70;;;11.40;99.90;;;;;;5023553;28;20175;-77
2022/04/05 11:19:58;;;;;;;9.80;6.60;;;11.40;99.90;;;;;;5022852;28;20197;-79
2022/04/05 11:22:23;;;;;;;10.70;6.37;;;11.30;99.90;;;;;;5023705;28;20197;-79
2022/04/05 11:25:05;;;;;;;9.07;6.40;;;11.40;99.90;;;;;;5024083;28;20646;-78
2022/04/05 11:27:32;;;;;;;9.03;6.40;;;11.70;99.90;;;;;;5041639;28;20232;-78
2022/04/05 11:30:20;;;;;;;10.13;6.20;;;11.90;99.90;;;;;;5022458;28;20301;-77
2022/04/05 11:33:17;;;;;;;11.50;6.27;;;12.10;99.90;;;;;;5024382;28;20174;-78
2022/04/05 11:36:01;;;;;;;7.67;5.90;;;12.70;99.90;;;;;;5038455;28;20209;-78
2022/04/05 11:38:33;;;;;;;6.97;5.00;;;12.90;99.90;;;;;;5022803;28;20183;-80
2022/04/05 11:41:02;;;;;;;6.77;5.23;;;12.70;99.90;;;;;;5027336;28;20218;-79
2022/04/05 11:43:34;;;;;;;9.30;5.20;;;12.50;99.90;;;;;;5020794;28;20229;-79
2022/04/05 11:46:12;;;;;;;9.60;5.77;;;12.70;99.90;;;;;;5021877;28;20168;-77
2022/04/05 11:48:46;;;;;;;5.67;5.00;;;12.60;99.90;;;;;;5025090;28;20168;-77
2022/04/05 11:51:14;;;;;;;7.80;5.60;;;12.30;99.90;;;;;;5023641;28;20170;-78
2022/04/05 11:53:42;;;;;;;7.87;5.23;;;12.10;99.90;;;;;;5031460;28;20653;-78
2022/04/05 11:56:17;;;;;;;9.07;6.03;;;12.10;99.90;;;;;;5031165;28;20261;-78
2022/04/05 11:58:51;;;;;;;7.80;5.40;;;12.20;99.90;;;;;;5031122;28;20180;-78
2022/04/05 12:01:26;;;;;;;7.80;5.43;;;12.20;99.90;;;;;;5031678;28;20185;-77
2022/04/05 12:04:04;;;;;;;9.53;5.40;;;12.30;99.90;;;;;;5032178;28;20407;-80
2022/04/05 12:06:32;;;;;;;10.67;5.33;;;12.20;99.90;;;;;;5032374;28;20197;-79
2022/04/05 12:09:00;;;;;;;8.47;5.37;;;12.20;99.90;;;;;;5033137;28;20335;-79
2022/04/05 12:11:29;;;;;;;8.93;5.33;;;12.10;99.90;;;;;;5033400;28;20174;-78
2022/04/05 12:16:29;;;;;;;6.90;5.43;;;11.80;99.90;;;;;;5030152;28;20208;-75
2022/04/05 12:18:57;;;;;;;7.83;6.10;;;11.60;99.90;;;;;;5033113;28;20188;-75
2022/04/05 12:21:26;;;;;;;8.63;6.10;;;11.40;99.90;;;;;;5014832;28;20185;-75
2022/04/05 12:23:53;;;;;;;11.63;5.63;;;11.30;99.90;;;;;;5014904;28;20209;-75
2022/04/05 12:26:23;;;;;;;9.23;5.77;;;11.30;99.90;;;;;;5032465;28;20538;-75
2022/04/05 12:28:50;;;;;;;9.27;5.80;;;11.20;99.90;;;;;;5051149;22;20238;-80
2022/04/05 12:31:20;;;;;;;7.60;5.03;;;11.20;99.90;;;;;;5038475;28;20456;-79
2022/04/05 12:34:08;;;;;;;8.90;5.13;;;11.00;99.90;;;;;;5038675;28;20173;-80
2022/04/05 12:36:37;;;;;;;7.40;4.90;;;10.80;99.90;;;;;;5038991;28;20268;-82
2022/04/05 12:39:05;;;;;;;8.70;5.67;;;10.70;99.90;;;;;;5038060;28;20277;-83
2022/04/05 12:41:40;;;;;;;9.27;6.10;;;10.70;99.90;;;;;;5037035;28;20496;-83
2022/04/05 12:44:07;;;;;;;10.80;7.37;;;10.70;99.90;;;;;;5037676;28;20297;-82
2022/04/05 12:46:40;;;;;;;8.47;6.27;;;10.60;99.90;;;;;;5037305;28;20719;-82
2022/04/05 12:49:16;;;;;;;8.47;6.27;;;10.60;99.90;;;;;;5037097;28;20249;-83
2022/04/05 12:51:42;;;;;;;8.23;6.27;;;10.60;99.90;;;;;;5036590;28;20168;-81
2022/04/05 12:54:24;;;;;;;10.23;7.00;;;10.80;99.90;;;;;;5036977;28;20241;-78
2022/04/05 12:56:49;;;;;;;10.27;7.10;;;11.00;99.90;;;;;;5037432;28;20190;-81
2022/04/05 12:59:25;;;;;;;10.93;6.70;;;11.00;99.90;;;;;;5036953;28;20198;-80
2022/04/05 13:01:57;;;;;;;8.63;6.00;;;11.10;99.90;;;;;;5037174;28;20183;-80